Terminal Aerodrome Forecast
Issued by NWS

Home | Current Version | Previous Version | Graphics & Text | Print | Product List | Glossary On
Versions: 1 2 3 4 5 6 7 8 9 10 11 12 13 14 15 16 17
041
FTUS43 KMPX 081739
TAFRWF
TAF
KRWF 081739Z 0818/0918 33024G32KT 5SM -SN BLSN BKN025 BKN050
      TEMPO 0818/0822 1SM BLSN BKN015
     FM090300 32016G24KT 6SM BLSN SCT035=

USA.gov is the U.S. government's official web portal to all federal, state and local government web resources and services.